Time;durP1;ratioP1;P1;durP2;ratioP2;P2;SDS_P1;SDS_P2;PMS_P1;PMS_P2;Temp;Humidity;BMP_temperature;BMP_pressure;BME280_temperature;BME280_humidity;BME280_pressure;Samples;Min_cycle;Max_cycle;Signal;HPM_P1;HPM_P2
2020/12/08 00:02:17;;;;;;;33.10;16.15;;;2.80;85.10;;;;;;5017463;28;20382;-84
2020/12/08 00:04:43;;;;;;;31.00;16.38;;;2.80;85.00;;;;;;5030936;28;20084;-84
2020/12/08 00:07:10;;;;;;;37.45;16.55;;;2.80;85.20;;;;;;5014961;28;20029;-85
2020/12/08 00:09:36;;;;;;;29.60;15.63;;;2.80;85.10;;;;;;5015814;28;20037;-85
2020/12/08 00:12:03;;;;;;;32.03;16.00;;;2.80;85.10;;;;;;5042536;28;20021;-85
2020/12/08 00:14:29;;;;;;;33.22;16.80;;;2.80;85.10;;;;;;5034456;28;20128;-85
2020/12/08 00:17:06;;;;;;;33.17;16.40;;;2.80;85.00;;;;;;5051341;28;20079;-85
2020/12/08 00:19:32;;;;;;;32.88;16.70;;;2.80;85.10;;;;;;5031278;28;20041;-85
2020/12/08 00:22:00;;;;;;;34.78;16.63;;;2.80;85.10;;;;;;5038876;28;20500;-85
2020/12/08 00:24:26;;;;;;;33.53;15.95;;;2.80;85.30;;;;;;5038721;28;20037;-85
2020/12/08 00:26:51;;;;;;;35.15;17.02;;;2.90;85.20;;;;;;5034423;28;20021;-85
2020/12/08 00:29:19;;;;;;;33.80;17.15;;;2.80;85.00;;;;;;5033040;28;20036;-85
2020/12/08 00:31:45;;;;;;;32.55;16.60;;;2.80;84.90;;;;;;5031807;28;20045;-85
2020/12/08 00:34:11;;;;;;;28.65;15.18;;;2.80;84.80;;;;;;5033742;28;20033;-85
2020/12/08 00:36:37;;;;;;;35.25;18.45;;;2.70;84.90;;;;;;5023344;28;20481;-84
2020/12/08 00:39:02;;;;;;;31.42;15.85;;;2.70;85.00;;;;;;5031332;28;20092;-84
2020/12/08 00:41:28;;;;;;;33.17;16.63;;;2.70;84.90;;;;;;5015193;28;20489;-85
2020/12/08 00:43:53;;;;;;;31.45;16.92;;;2.60;85.00;;;;;;5015492;28;20051;-85
2020/12/08 00:46:20;;;;;;;34.05;18.02;;;2.60;85.00;;;;;;5017015;28;20458;-85
2020/12/08 00:48:47;;;;;;;28.40;14.52;;;2.50;85.00;;;;;;5045800;28;20037;-85
2020/12/08 00:51:13;;;;;;;34.33;17.10;;;2.50;85.10;;;;;;5047767;28;20029;-84
2020/12/08 00:53:38;;;;;;;30.95;17.40;;;2.40;85.10;;;;;;5030368;28;20033;-85
2020/12/08 00:56:09;;;;;;;33.75;17.13;;;2.40;85.20;;;;;;5014034;28;20029;-85
2020/12/08 00:58:35;;;;;;;31.73;16.50;;;2.40;85.20;;;;;;5043102;28;20026;-85
2020/12/08 01:01:02;;;;;;;34.42;17.58;;;2.30;85.20;;;;;;5037714;28;20024;-85
2020/12/08 01:03:28;;;;;;;34.30;17.80;;;2.30;85.20;;;;;;5014458;28;20037;-85
2020/12/08 01:05:53;;;;;;;32.88;16.48;;;2.20;85.20;;;;;;5014099;28;20358;-85
2020/12/08 01:08:19;;;;;;;37.22;18.88;;;2.20;85.20;;;;;;5031404;28;20502;-85
2020/12/08 01:10:44;;;;;;;34.60;17.88;;;2.20;85.30;;;;;;5017123;28;20079;-85
2020/12/08 01:13:10;;;;;;;35.47;17.40;;;2.20;85.30;;;;;;5033461;28;20029;-84
2020/12/08 01:15:36;;;;;;;34.67;17.42;;;2.20;85.40;;;;;;5033232;28;20113;-86
2020/12/08 01:18:01;;;;;;;33.50;17.45;;;2.10;85.40;;;;;;5022248;28;20033;-85
2020/12/08 01:20:28;;;;;;;36.42;17.45;;;2.10;85.40;;;;;;5030870;28;20083;-85
2020/12/08 01:22:54;;;;;;;30.02;16.40;;;2.10;85.40;;;;;;5015538;28;20481;-85
2020/12/08 01:25:19;;;;;;;38.00;18.67;;;2.10;85.40;;;;;;5049375;28;20108;-85
2020/12/08 01:27:45;;;;;;;35.40;16.67;;;2.10;85.40;;;;;;5032243;28;20040;-85
2020/12/08 01:30:11;;;;;;;34.50;16.58;;;2.10;85.40;;;;;;5035832;28;20504;-85
2020/12/08 01:32:36;;;;;;;35.20;17.48;;;2.00;85.40;;;;;;5020430;28;20029;-86
2020/12/08 01:35:02;;;;;;;33.47;16.65;;;1.90;85.30;;;;;;5017964;28;20030;-85
2020/12/08 01:37:28;;;;;;;34.08;16.27;;;1.90;85.50;;;;;;5017101;28;20036;-85
2020/12/08 01:39:53;;;;;;;35.20;17.30;;;1.90;85.50;;;;;;5028407;28;20087;-86
2020/12/08 01:42:19;;;;;;;38.28;18.73;;;1.90;85.50;;;;;;5037374;28;20041;-85
2020/12/08 01:44:50;;;;;;;36.47;17.48;;;1.90;85.60;;;;;;5052167;28;20048;-85
2020/12/08 01:47:21;;;;;;;38.10;17.27;;;1.90;85.70;;;;;;5019761;28;20494;-85
2020/12/08 01:49:48;;;;;;;34.70;18.08;;;1.90;85.60;;;;;;5034450;28;20131;-85
2020/12/08 01:52:23;;;;;;;33.28;16.75;;;1.90;85.70;;;;;;5041825;28;20413;-86
2020/12/08 01:55:02;;;;;;;33.53;16.83;;;1.90;85.60;;;;;;5035323;28;20524;-85
2020/12/08 01:57:28;;;;;;;37.38;18.58;;;1.90;85.60;;;;;;5034822;28;20413;-86
2020/12/08 01:59:54;;;;;;;35.50;17.17;;;1.90;85.70;;;;;;5035775;28;20021;-86
2020/12/08 02:02:26;;;;;;;37.22;17.63;;;1.80;85.60;;;;;;5035882;28;20032;-85
2020/12/08 02:04:59;;;;;;;37.33;18.15;;;1.80;85.50;;;;;;5038381;28;20478;-84
2020/12/08 02:07:31;;;;;;;34.42;17.67;;;1.80;85.60;;;;;;5053377;28;20116;-85
2020/12/08 02:09:56;;;;;;;32.17;16.52;;;1.80;85.60;;;;;;5035289;28;20067;-86
2020/12/08 02:12:25;;;;;;;35.55;17.05;;;1.80;85.60;;;;;;5030166;28;20041;-86
2020/12/08 02:14:51;;;;;;;36.42;18.00;;;1.80;85.60;;;;;;5035154;28;20045;-85
2020/12/08 02:17:19;;;;;;;39.97;19.30;;;1.70;85.60;;;;;;5015163;28;20124;-85
2020/12/08 02:19:45;;;;;;;36.53;17.45;;;1.80;85.70;;;;;;5033950;28;20029;-85
2020/12/08 02:22:11;;;;;;;41.75;20.10;;;1.70;85.70;;;;;;5034004;28;20018;-85
2020/12/08 02:24:39;;;;;;;40.08;19.50;;;1.80;85.80;;;;;;5031465;28;20502;-86
2020/12/08 02:27:11;;;;;;;41.00;19.58;;;1.80;85.80;;;;;;5040216;28;20441;-85
2020/12/08 02:29:44;;;;;;;38.72;18.02;;;1.80;85.90;;;;;;5017166;28;20501;-84
2020/12/08 02:32:20;;;;;;;38.72;18.17;;;1.90;85.90;;;;;;5053301;28;20489;-85
2020/12/08 02:38:04;;;;;;;41.42;18.45;;;1.90;85.60;;;;;;5044923;28;20103;-85
2020/12/08 02:40:46;;;;;;;36.88;17.17;;;1.90;85.70;;;;;;5022934;28;20113;-85
2020/12/08 02:43:41;;;;;;;39.30;18.63;;;2.00;85.70;;;;;;5016805;28;20026;-84
2020/12/08 02:46:15;;;;;;;37.42;18.17;;;2.00;85.70;;;;;;5032500;28;20025;-85
2020/12/08 02:48:49;;;;;;;35.70;17.80;;;2.00;85.70;;;;;;5018630;28;20025;-85
2020/12/08 02:54:20;;;;;;;41.53;19.05;;;2.00;85.60;;;;;;5034276;28;20055;-85
2020/12/08 02:56:51;;;;;;;38.17;18.63;;;2.00;85.60;;;;;;5027991;28;20508;-85
2020/12/08 02:59:53;;;;;;;40.40;19.27;;;2.00;85.60;;;;;;5016078;28;20567;-85
2020/12/08 03:02:28;;;;;;;39.42;18.08;;;2.10;85.70;;;;;;5045009;28;20409;-84
2020/12/08 03:05:02;;;;;;;37.95;18.23;;;2.10;85.50;;;;;;5036043;28;20104;-85
2020/12/08 03:07:54;;;;;;;44.13;19.55;;;2.10;85.50;;;;;;5048242;28;20040;-85
2020/12/08 03:10:22;;;;;;;37.33;18.40;;;2.10;85.50;;;;;;5031548;28;20029;-85
2020/12/08 03:13:05;;;;;;;39.00;18.13;;;2.10;85.60;;;;;;5033201;28;20041;-85
2020/12/08 03:15:38;;;;;;;;;;;2.10;85.60;;;;;;5016409;28;20060;-85
2020/12/08 03:18:16;;;;;;;37.45;16.80;;;2.10;85.50;;;;;;5043626;28;19912;-84
2020/12/08 03:20:51;;;;;;;42.65;18.58;;;2.10;85.40;;;;;;5030530;28;20039;-85
2020/12/08 03:23:25;;;;;;;39.85;18.92;;;2.10;85.50;;;;;;5034778;28;20024;-85
2020/12/08 03:25:55;;;;;;;34.97;17.20;;;2.10;85.50;;;;;;5016248;28;20061;-85
2020/12/08 03:28:21;;;;;;;40.03;18.85;;;2.10;85.50;;;;;;5015017;28;20021;-85
2020/12/08 03:30:52;;;;;;;39.28;19.00;;;2.10;85.60;;;;;;5032470;28;20359;-85
2020/12/08 03:33:20;;;;;;;37.93;19.57;;;2.10;85.70;;;;;;5014605;28;20040;-85
2020/12/08 03:35:49;;;;;;;36.20;17.83;;;2.20;85.70;;;;;;5034629;28;20037;-84
2020/12/08 03:38:22;;;;;;;38.00;18.33;;;2.20;85.70;;;;;;5034363;28;20509;-85
2020/12/08 03:40:53;;;;;;;38.50;17.98;;;2.20;85.70;;;;;;5021943;28;20041;-86
2020/12/08 03:43:21;;;;;;;38.17;19.00;;;2.20;85.70;;;;;;5033793;28;20497;-85
2020/12/08 03:45:52;;;;;;;36.28;17.92;;;2.30;85.70;;;;;;5051822;28;20106;-85
2020/12/08 03:48:28;;;;;;;38.25;18.55;;;2.30;85.70;;;;;;5025589;28;20029;-85
2020/12/08 03:50:54;;;;;;;37.70;17.35;;;2.30;85.70;;;;;;5033976;28;20072;-85
2020/12/08 03:53:27;;;;;;;37.03;18.77;;;2.30;85.70;;;;;;5052351;28;20029;-85
2020/12/08 03:55:52;;;;;;;35.17;18.17;;;2.30;85.60;;;;;;5052535;28;20493;-84
2020/12/08 03:58:21;;;;;;;33.65;17.15;;;2.30;85.60;;;;;;5016109;28;20100;-85
2020/12/08 04:00:51;;;;;;;34.17;17.13;;;2.30;85.60;;;;;;5024831;28;20055;-85
2020/12/08 04:03:20;;;;;;;37.78;18.27;;;2.30;85.60;;;;;;5034761;28;20029;-84
2020/12/08 04:05:48;;;;;;;33.72;17.00;;;2.30;85.60;;;;;;5019912;28;20124;-84
2020/12/08 04:08:13;;;;;;;35.33;17.88;;;2.40;85.70;;;;;;5034872;28;20517;-85
2020/12/08 04:10:39;;;;;;;36.40;17.80;;;2.40;85.70;;;;;;5046463;28;20053;-84
2020/12/08 04:13:06;;;;;;;31.98;17.17;;;2.40;85.60;;;;;;5017852;28;20021;-85
2020/12/08 04:15:32;;;;;;;33.78;17.65;;;2.40;85.60;;;;;;5018777;28;20032;-85
2020/12/08 04:17:57;;;;;;;38.50;18.80;;;2.40;85.60;;;;;;5040906;28;20056;-85
2020/12/08 04:20:23;;;;;;;35.33;17.95;;;2.40;85.70;;;;;;5051145;28;20028;-85
2020/12/08 04:22:49;;;;;;;33.50;18.15;;;2.40;85.60;;;;;;5051895;28;20021;-84
2020/12/08 04:25:20;;;;;;;37.47;18.00;;;2.40;85.50;;;;;;5037642;28;20103;-84
2020/12/08 04:27:46;;;;;;;36.22;17.80;;;2.40;85.50;;;;;;5033004;28;20051;-85
2020/12/08 04:30:11;;;;;;;26.70;14.73;;;2.40;85.50;;;;;;5014516;28;20163;-85
2020/12/08 04:32:40;;;;;;;37.28;17.48;;;2.40;85.50;;;;;;5038813;28;20037;-85
2020/12/08 04:35:08;;;;;;;31.40;17.38;;;2.40;85.50;;;;;;5052004;28;20028;-85
2020/12/08 04:37:37;;;;;;;33.42;17.45;;;2.40;85.50;;;;;;5050293;28;20033;-85
2020/12/08 04:40:05;;;;;;;28.90;16.30;;;2.40;85.40;;;;;;5018681;28;20041;-86
2020/12/08 04:42:50;;;;;;;33.72;17.58;;;2.40;85.50;;;;;;5024949;28;20026;-84
2020/12/08 04:45:18;;;;;;;34.97;17.75;;;2.30;85.40;;;;;;5050130;28;20037;-83
2020/12/08 04:47:45;;;;;;;32.22;16.60;;;2.30;85.50;;;;;;5046587;28;20557;-84
2020/12/08 04:50:18;;;;;;;34.40;17.85;;;2.30;85.60;;;;;;5044927;28;20079;-84
2020/12/08 04:52:54;;;;;;;36.17;17.80;;;2.30;85.60;;;;;;5031294;28;20037;-85
2020/12/08 04:55:19;;;;;;;37.60;18.17;;;2.30;85.60;;;;;;5036541;28;20064;-85
2020/12/08 04:57:46;;;;;;;34.13;17.52;;;2.30;85.60;;;;;;5020628;28;20033;-85
2020/12/08 05:03:30;;;;;;;34.15;17.95;;;2.40;85.60;;;;;;4960405;28;20035;-85
2020/12/08 05:05:59;;;;;;;33.42;17.77;;;2.40;85.50;;;;;;5018416;28;20025;-84
2020/12/08 05:08:26;;;;;;;33.92;16.70;;;2.40;85.50;;;;;;5018422;28;20034;-84
2020/12/08 05:10:51;;;;;;;36.75;19.27;;;2.40;85.50;;;;;;5030531;28;20021;-85
2020/12/08 05:13:27;;;;;;;33.78;16.58;;;2.40;85.50;;;;;;5022474;28;20037;-84
2020/12/08 05:16:02;;;;;;;36.38;17.38;;;2.40;85.50;;;;;;5018701;28;20033;-85
2020/12/08 05:18:32;;;;;;;35.75;17.35;;;2.40;85.50;;;;;;5018999;28;20508;-85
2020/12/08 05:21:18;;;;;;;34.42;16.60;;;2.40;85.40;;;;;;5036376;28;20402;-85
2020/12/08 05:23:44;;;;;;;36.22;18.17;;;2.30;85.40;;;;;;5035364;28;20041;-85
2020/12/08 05:26:13;;;;;;;30.92;14.73;;;2.30;85.30;;;;;;5036861;28;20032;-85
2020/12/08 05:28:40;;;;;;;36.55;17.98;;;2.30;85.30;;;;;;5021493;28;20037;-85
2020/12/08 05:31:13;;;;;;;37.65;18.83;;;2.30;85.30;;;;;;5020398;28;20032;-85
2020/12/08 05:33:39;;;;;;;38.42;18.38;;;2.20;85.40;;;;;;5037406;28;20029;-85
2020/12/08 05:36:06;;;;;;;36.10;17.95;;;2.30;85.50;;;;;;5047975;28;20079;-84
2020/12/08 05:38:36;;;;;;;35.63;17.65;;;2.30;85.50;;;;;;5026024;28;20164;-84
2020/12/08 05:41:04;;;;;;;37.42;19.05;;;2.30;85.50;;;;;;5036932;28;20036;-85
2020/12/08 05:43:43;;;;;;;37.88;18.30;;;2.30;85.50;;;;;;5023545;28;20565;-85
2020/12/08 05:46:10;;;;;;;37.90;18.45;;;2.30;85.50;;;;;;5037202;28;20037;-85
2020/12/08 05:48:38;;;;;;;40.53;19.63;;;2.30;85.40;;;;;;5023416;28;20034;-85
2020/12/08 05:51:04;;;;;;;42.15;19.67;;;2.30;85.40;;;;;;5041946;28;20033;-85
2020/12/08 05:53:30;;;;;;;40.55;18.92;;;2.30;85.60;;;;;;5036179;28;20397;-85
2020/12/08 05:56:06;;;;;;;40.22;19.55;;;2.30;85.50;;;;;;5028090;28;20448;-85
2020/12/08 05:58:32;;;;;;;38.95;19.88;;;2.30;85.40;;;;;;5037793;28;20040;-85
2020/12/08 06:01:06;;;;;;;41.20;19.77;;;2.30;85.40;;;;;;5025420;28;20023;-84
2020/12/08 06:03:34;;;;;;;40.67;19.02;;;2.30;85.20;;;;;;5034741;28;20044;-85
2020/12/08 06:06:10;;;;;;;37.50;17.50;;;2.30;85.20;;;;;;5034730;28;20086;-84
2020/12/08 06:08:43;;;;;;;39.72;18.88;;;2.30;85.40;;;;;;5036294;28;20021;-86
2020/12/08 06:11:08;;;;;;;41.00;19.95;;;2.20;85.20;;;;;;5021361;28;20029;-85
2020/12/08 06:13:35;;;;;;;39.08;18.95;;;2.20;85.30;;;;;;5033516;28;20120;-86
2020/12/08 06:16:17;;;;;;;40.47;18.58;;;2.20;85.30;;;;;;5033896;28;20093;-84
2020/12/08 06:18:43;;;;;;;32.95;15.90;;;2.20;85.40;;;;;;5025504;28;20029;-85
2020/12/08 06:21:19;;;;;;;38.25;16.88;;;2.10;85.20;;;;;;5037854;28;20037;-85
2020/12/08 06:23:49;;;;;;;40.17;18.27;;;2.10;85.30;;;;;;5026940;28;20033;-84
2020/12/08 06:26:24;;;;;;;36.50;17.23;;;2.10;85.30;;;;;;5049456;28;20030;-84
2020/12/08 06:28:50;;;;;;;35.17;17.55;;;2.00;85.30;;;;;;5055589;28;20385;-85
2020/12/08 06:31:16;;;;;;;38.45;19.05;;;2.00;85.30;;;;;;5041296;28;20430;-85
2020/12/08 06:33:53;;;;;;;40.67;18.10;;;1.90;85.30;;;;;;5020634;28;20115;-85
2020/12/08 06:36:20;;;;;;;37.65;17.42;;;1.90;85.50;;;;;;5036940;28;20033;-84
2020/12/08 06:39:00;;;;;;;40.55;19.00;;;1.90;85.50;;;;;;5030685;28;20040;-85
2020/12/08 06:41:37;;;;;;;38.85;19.77;;;1.90;85.50;;;;;;5053580;28;20086;-85
2020/12/08 06:44:22;;;;;;;42.03;20.10;;;1.90;85.40;;;;;;5037634;28;20043;-84
2020/12/08 06:46:55;;;;;;;41.30;18.85;;;1.90;85.90;;;;;;5034227;28;20041;-85
2020/12/08 06:49:21;;;;;;;37.78;17.95;;;1.80;85.40;;;;;;5033183;28;20037;-84
2020/12/08 06:51:56;;;;;;;35.97;17.52;;;1.80;85.40;;;;;;5030232;28;20033;-85
2020/12/08 06:54:23;;;;;;;38.90;17.65;;;1.80;85.50;;;;;;5037364;28;20029;-85
2020/12/08 06:56:49;;;;;;;35.92;18.08;;;1.70;85.40;;;;;;5017708;28;20036;-84
2020/12/08 06:59:25;;;;;;;39.25;17.40;;;1.70;85.50;;;;;;5021514;28;20513;-86
2020/12/08 07:01:58;;;;;;;36.80;17.98;;;1.70;85.60;;;;;;5019171;28;20091;-85
2020/12/08 07:04:26;;;;;;;39.60;18.65;;;1.70;85.60;;;;;;5019862;28;20022;-86
2020/12/08 07:06:52;;;;;;;38.42;18.90;;;1.60;85.50;;;;;;5020473;28;20033;-86
2020/12/08 07:09:18;;;;;;;38.33;18.98;;;1.60;85.60;;;;;;5051031;28;20036;-84
2020/12/08 07:11:44;;;;;;;40.90;18.30;;;1.60;85.70;;;;;;5041927;28;20532;-85
2020/12/08 07:14:10;;;;;;;40.20;19.00;;;1.60;85.70;;;;;;5027874;28;20053;-85
2020/12/08 07:16:36;;;;;;;39.05;17.95;;;1.60;85.80;;;;;;5034862;28;20029;-84
2020/12/08 07:19:04;;;;;;;37.67;18.05;;;1.70;85.80;;;;;;5052574;28;20029;-85
2020/12/08 07:21:30;;;;;;;44.85;20.17;;;1.70;85.70;;;;;;5031414;28;20030;-86
2020/12/08 07:23:56;;;;;;;38.95;19.10;;;1.70;85.70;;;;;;5051698;28;20066;-86
2020/12/08 07:26:26;;;;;;;36.80;16.55;;;1.70;85.60;;;;;;5043060;28;20100;-85
2020/12/08 07:28:53;;;;;;;36.22;17.75;;;1.70;85.50;;;;;;5023924;28;20404;-85
2020/12/08 07:31:29;;;;;;;37.38;18.17;;;1.70;85.40;;;;;;5019323;28;20462;-85
2020/12/08 07:33:55;;;;;;;38.00;18.23;;;1.70;85.60;;;;;;5021893;28;20021;-85
2020/12/08 07:36:24;;;;;;;38.63;17.25;;;1.70;85.50;;;;;;5024206;28;20025;-84
2020/12/08 07:38:53;;;;;;;39.55;17.98;;;1.70;85.60;;;;;;5031887;28;20022;-85
2020/12/08 07:41:24;;;;;;;38.97;18.45;;;1.70;85.50;;;;;;5030679;28;20258;-85
2020/12/08 07:43:54;;;;;;;39.70;18.33;;;1.60;85.50;;;;;;5018761;28;20033;-85
2020/12/08 07:46:31;;;;;;;36.40;18.42;;;1.60;85.50;;;;;;5031448;28;20493;-85
2020/12/08 07:49:08;;;;;;;39.38;18.58;;;1.60;85.60;;;;;;5034309;28;20033;-85
2020/12/08 07:51:36;;;;;;;39.13;18.42;;;1.60;85.80;;;;;;5032868;28;20033;-85
2020/12/08 07:54:02;;;;;;;35.22;16.30;;;1.70;85.80;;;;;;5038025;28;20366;-85
2020/12/08 07:56:30;;;;;;;37.35;17.63;;;1.70;85.60;;;;;;5046854;28;20486;-85
2020/12/08 07:58:57;;;;;;;37.15;17.17;;;1.80;85.50;;;;;;5029376;28;20040;-84
2020/12/08 08:01:23;;;;;;;36.25;16.60;;;1.80;85.40;;;;;;5047396;28;20017;-85
2020/12/08 08:03:49;;;;;;;36.03;17.30;;;1.80;85.30;;;;;;5020829;28;20037;-85
2020/12/08 08:06:17;;;;;;;40.40;18.25;;;1.80;85.50;;;;;;5036390;28;20024;-85
2020/12/08 08:08:50;;;;;;;36.42;16.17;;;1.80;85.40;;;;;;5019789;28;20096;-85
2020/12/08 08:11:16;;;;;;;34.53;16.35;;;1.80;85.30;;;;;;5021561;28;20033;-85
2020/12/08 08:13:47;;;;;;;35.90;18.02;;;1.80;85.20;;;;;;5039539;28;20029;-85
2020/12/08 08:16:25;;;;;;;37.17;16.95;;;1.80;85.10;;;;;;5026947;28;20116;-86
2020/12/08 08:18:51;;;;;;;37.75;17.80;;;1.80;85.60;;;;;;5031647;28;20080;-86
2020/12/08 08:21:18;;;;;;;33.28;16.50;;;1.80;85.20;;;;;;5020616;28;20041;-86
2020/12/08 08:24:14;;;;;;;31.83;15.60;;;1.80;85.20;;;;;;5016635;28;20029;-85
2020/12/08 08:26:41;;;;;;;35.28;17.27;;;1.90;85.20;;;;;;5025043;28;20278;-85
2020/12/08 08:29:08;;;;;;;33.70;17.40;;;1.80;85.10;;;;;;5047491;28;20541;-85
2020/12/08 08:31:34;;;;;;;35.40;16.15;;;1.80;85.10;;;;;;5018676;28;20045;-85
2020/12/08 08:33:59;;;;;;;32.28;15.80;;;1.80;85.10;;;;;;5020981;28;20079;-86
2020/12/08 08:36:25;;;;;;;38.50;17.88;;;1.80;85.10;;;;;;5027545;28;20398;-85
2020/12/08 08:38:50;;;;;;;37.92;19.55;;;1.70;85.10;;;;;;5031061;28;20036;-84
2020/12/08 08:41:16;;;;;;;39.00;18.30;;;1.70;85.20;;;;;;5043214;28;20029;-84
2020/12/08 08:43:41;;;;;;;38.67;17.88;;;1.70;85.30;;;;;;5033856;28;20108;-85
2020/12/08 08:46:09;;;;;;;34.72;17.08;;;1.70;85.40;;;;;;5021450;28;20025;-86
2020/12/08 08:48:34;;;;;;;35.92;17.00;;;1.70;85.50;;;;;;5014329;28;20048;-85
2020/12/08 08:51:00;;;;;;;43.08;18.35;;;1.80;85.50;;;;;;5033226;28;20021;-85
2020/12/08 08:53:25;;;;;;;39.97;18.60;;;1.80;85.50;;;;;;5018673;28;20177;-85
2020/12/08 08:55:51;;;;;;;37.10;16.60;;;1.90;85.40;;;;;;5016628;28;20060;-86
2020/12/08 08:58:17;;;;;;;37.63;16.52;;;1.90;85.30;;;;;;5022040;28;20508;-86
2020/12/08 09:00:42;;;;;;;35.35;16.90;;;1.90;85.30;;;;;;5026910;28;20569;-86
2020/12/08 09:03:09;;;;;;;33.33;15.32;;;1.90;85.20;;;;;;5053430;28;20024;-86
2020/12/08 09:05:34;;;;;;;32.80;16.38;;;1.90;85.10;;;;;;5031921;28;20060;-85
2020/12/08 09:08:00;;;;;;;36.35;16.83;;;1.80;85.00;;;;;;5032770;28;20072;-85
2020/12/08 09:10:26;;;;;;;36.35;17.42;;;1.90;85.00;;;;;;5031668;28;20485;-84
2020/12/08 09:12:52;;;;;;;34.33;16.70;;;2.00;85.20;;;;;;5044931;28;20029;-85
2020/12/08 09:15:17;;;;;;;37.17;17.55;;;2.00;85.00;;;;;;5031673;28;20033;-85
2020/12/08 09:17:43;;;;;;;37.17;17.30;;;2.00;85.00;;;;;;5032137;28;20042;-84
2020/12/08 09:20:08;;;;;;;41.17;17.83;;;2.00;85.00;;;;;;5019979;28;20030;-85
2020/12/08 09:22:34;;;;;;;35.00;16.17;;;2.10;85.10;;;;;;5039181;28;20029;-86
2020/12/08 09:25:00;;;;;;;34.08;16.65;;;2.10;84.80;;;;;;5050902;28;20025;-85
2020/12/08 09:27:25;;;;;;;40.40;18.63;;;2.20;84.80;;;;;;5046913;28;20025;-85
2020/12/08 09:29:51;;;;;;;38.30;16.77;;;2.30;85.30;;;;;;5068737;28;20025;-85
2020/12/08 09:32:17;;;;;;;36.95;17.85;;;2.40;84.70;;;;;;5044905;28;20025;-85
2020/12/08 09:34:42;;;;;;;36.15;17.67;;;2.50;84.70;;;;;;5052301;28;20140;-86
2020/12/08 09:37:08;;;;;;;35.40;17.92;;;2.50;84.50;;;;;;5055079;28;20029;-85
2020/12/08 09:39:36;;;;;;;32.72;17.88;;;2.70;84.50;;;;;;5051360;28;20029;-84
2020/12/08 09:42:02;;;;;;;34.70;17.45;;;2.70;84.30;;;;;;5067025;28;20026;-85
2020/12/08 09:44:28;;;;;;;35.80;17.40;;;2.80;84.10;;;;;;5037221;28;20029;-85
2020/12/08 09:46:54;;;;;;;35.97;17.88;;;2.80;84.00;;;;;;5047898;28;20030;-85
2020/12/08 09:49:20;;;;;;;34.65;17.02;;;2.80;83.90;;;;;;5038431;28;20160;-85
2020/12/08 09:51:46;;;;;;;36.70;18.10;;;2.80;84.10;;;;;;5037742;28;20037;-86
2020/12/08 09:54:12;;;;;;;31.35;17.02;;;2.90;84.10;;;;;;5055338;28;20029;-86
2020/12/08 09:56:38;;;;;;;33.78;16.98;;;2.90;84.00;;;;;;5038208;28;20105;-85
2020/12/08 09:59:03;;;;;;;34.38;17.30;;;2.90;83.90;;;;;;5038742;28;20044;-85
2020/12/08 10:01:31;;;;;;;34.97;16.73;;;2.90;83.70;;;;;;5044132;28;20017;-85
2020/12/08 10:03:58;;;;;;;35.42;16.52;;;2.90;83.70;;;;;;5034755;28;20026;-85
2020/12/08 10:06:24;;;;;;;31.58;15.73;;;2.90;83.70;;;;;;5047837;28;20025;-85
2020/12/08 10:08:50;;;;;;;36.08;16.90;;;3.00;83.80;;;;;;5020125;28;20055;-86
2020/12/08 10:11:16;;;;;;;31.98;15.80;;;2.90;83.80;;;;;;5036392;28;20024;-85
2020/12/08 10:13:42;;;;;;;33.53;17.10;;;2.90;83.80;;;;;;5028482;28;20047;-85
2020/12/08 10:16:09;;;;;;;34.42;18.33;;;2.90;83.80;;;;;;5036306;28;20049;-86
2020/12/08 10:18:35;;;;;;;33.35;16.52;;;2.90;84.00;;;;;;5028398;28;20033;-86
2020/12/08 10:21:02;;;;;;;36.97;16.38;;;2.90;83.90;;;;;;5034786;28;20021;-87
2020/12/08 10:23:27;;;;;;;35.00;17.75;;;3.00;84.40;;;;;;5026389;28;20053;-85
2020/12/08 10:25:53;;;;;;;35.45;18.10;;;3.00;83.90;;;;;;5016645;28;20072;-86
2020/12/08 10:28:19;;;;;;;33.28;17.08;;;3.10;83.80;;;;;;5017546;28;20025;-86
2020/12/08 10:30:45;;;;;;;39.30;18.70;;;3.20;83.90;;;;;;5031560;28;20059;-86
2020/12/08 10:33:10;;;;;;;34.85;17.52;;;3.30;84.10;;;;;;5027847;28;20024;-86
2020/12/08 10:35:36;;;;;;;35.85;19.02;;;3.30;83.50;;;;;;5035682;28;20032;-86
2020/12/08 10:38:01;;;;;;;33.85;17.33;;;3.30;83.50;;;;;;5045456;28;20044;-85
2020/12/08 10:40:27;;;;;;;35.33;17.27;;;3.30;83.40;;;;;;5025344;28;20174;-86
2020/12/08 10:42:52;;;;;;;33.58;17.27;;;3.40;83.40;;;;;;5017317;28;20075;-86
2020/12/08 10:45:18;;;;;;;35.47;17.02;;;3.40;83.50;;;;;;5023427;28;20029;-86
2020/12/08 10:47:44;;;;;;;36.30;17.98;;;3.40;83.30;;;;;;5036633;28;20033;-87
2020/12/08 10:50:10;;;;;;;34.03;16.35;;;3.40;83.20;;;;;;5018863;28;20025;-86
2020/12/08 10:52:36;;;;;;;32.60;17.63;;;3.50;83.30;;;;;;5023105;28;20064;-87
2020/12/08 10:55:01;;;;;;;37.00;16.48;;;3.50;83.20;;;;;;5035273;28;20106;-86
2020/12/08 10:57:27;;;;;;;35.63;17.30;;;3.40;83.10;;;;;;5052379;28;20049;-86
2020/12/08 10:59:52;;;;;;;29.13;15.68;;;3.40;82.90;;;;;;5025589;28;20026;-87
2020/12/08 11:02:18;;;;;;;32.17;16.88;;;3.30;82.90;;;;;;5015532;28;20147;-86
2020/12/08 11:04:44;;;;;;;33.90;17.35;;;3.20;82.80;;;;;;5036984;28;20107;-86
2020/12/08 11:07:10;;;;;;;31.95;16.38;;;3.10;83.00;;;;;;5026257;28;20027;-86
2020/12/08 11:09:35;;;;;;;33.67;16.90;;;3.10;83.30;;;;;;5030486;28;20060;-86
2020/12/08 11:12:01;;;;;;;32.50;15.95;;;3.00;83.70;;;;;;5022378;28;20026;-86
2020/12/08 11:14:28;;;;;;;37.65;18.27;;;2.90;83.20;;;;;;5022607;28;20120;-86
2020/12/08 11:16:54;;;;;;;34.00;16.92;;;2.80;83.30;;;;;;5052993;28;20378;-86
2020/12/08 11:19:20;;;;;;;35.33;17.55;;;2.70;83.30;;;;;;5033000;28;20047;-86
2020/12/08 11:21:46;;;;;;;35.22;18.08;;;2.70;83.40;;;;;;5032435;28;20029;-86
2020/12/08 11:24:12;;;;;;;35.25;16.75;;;2.70;83.50;;;;;;5051801;28;20116;-86
2020/12/08 11:26:37;;;;;;;34.90;17.38;;;2.60;83.60;;;;;;5054654;28;20020;-87
2020/12/08 11:29:05;;;;;;;37.05;18.10;;;2.70;83.70;;;;;;5019016;28;20083;-85
2020/12/08 11:31:31;;;;;;;34.30;17.88;;;2.70;83.70;;;;;;5019055;28;20413;-86
2020/12/08 11:33:57;;;;;;;32.92;16.02;;;2.70;83.60;;;;;;5032174;28;20115;-87
2020/12/08 11:36:23;;;;;;;34.45;16.50;;;2.80;83.70;;;;;;5051549;28;20097;-85
2020/12/08 11:38:48;;;;;;;36.50;17.23;;;2.80;83.60;;;;;;5044685;28;20493;-86
2020/12/08 11:41:14;;;;;;;34.97;17.17;;;2.90;83.60;;;;;;5024262;28;20037;-86
2020/12/08 11:43:40;;;;;;;33.55;16.13;;;3.10;83.70;;;;;;5026731;28;20516;-86
2020/12/08 11:46:11;;;;;;;33.00;15.93;;;3.20;83.50;;;;;;5026621;28;20025;-85
2020/12/08 11:48:36;;;;;;;32.97;17.08;;;3.30;83.30;;;;;;5032656;28;20029;-89
2020/12/08 11:51:02;;;;;;;34.45;16.73;;;3.40;83.10;;;;;;5018720;28;20036;-85
2020/12/08 11:53:28;;;;;;;33.80;15.63;;;3.40;83.10;;;;;;5013150;28;20111;-85
2020/12/08 11:55:53;;;;;;;34.13;16.75;;;3.50;83.00;;;;;;5043876;28;20035;-87
2020/12/08 11:58:19;;;;;;;34.13;17.00;;;3.50;82.80;;;;;;5012994;28;20052;-86
2020/12/08 12:00:44;;;;;;;32.45;16.10;;;3.60;83.00;;;;;;5024527;28;20080;-86
2020/12/08 12:03:10;;;;;;;34.08;18.02;;;3.70;82.80;;;;;;5030652;28;20032;-85
2020/12/08 12:05:37;;;;;;;33.88;17.00;;;3.70;82.80;;;;;;5047305;28;20053;-86
2020/12/08 12:08:03;;;;;;;29.60;16.05;;;3.90;82.80;;;;;;5044261;28;20046;-85
2020/12/08 12:10:29;;;;;;;31.50;16.20;;;3.90;82.50;;;;;;5036041;28;20623;-85
2020/12/08 12:12:55;;;;;;;29.20;16.20;;;4.00;82.20;;;;;;5014668;28;20061;-85
2020/12/08 12:15:20;;;;;;;30.77;15.27;;;4.10;82.10;;;;;;5049899;28;20040;-85
2020/12/08 12:17:46;;;;;;;31.58;16.20;;;4.10;82.00;;;;;;5046190;28;20108;-85
2020/12/08 12:20:12;;;;;;;32.10;15.57;;;4.20;82.10;;;;;;5051123;28;20029;-85
2020/12/08 12:22:37;;;;;;;31.45;16.17;;;4.30;82.10;;;;;;5019747;28;20409;-85
2020/12/08 12:25:03;;;;;;;29.80;15.25;;;4.40;81.80;;;;;;5023912;28;20481;-85
2020/12/08 12:27:30;;;;;;;27.92;15.18;;;4.50;81.40;;;;;;5027817;28;20432;-85
2020/12/08 12:29:56;;;;;;;28.75;15.40;;;4.60;81.50;;;;;;5022123;28;20022;-85
2020/12/08 12:32:21;;;;;;;29.02;15.45;;;4.80;81.30;;;;;;5049559;28;20044;-86
2020/12/08 12:34:47;;;;;;;31.15;16.80;;;4.80;81.40;;;;;;5030065;28;20035;-86
2020/12/08 12:37:13;;;;;;;29.58;16.20;;;4.90;81.30;;;;;;5030128;28;20025;-86
2020/12/08 12:39:39;;;;;;;29.67;15.68;;;4.90;81.20;;;;;;5028424;28;20123;-85
2020/12/08 12:42:05;;;;;;;27.55;14.73;;;5.00;81.30;;;;;;5030529;28;20065;-85
2020/12/08 12:44:31;;;;;;;31.75;16.40;;;5.10;81.00;;;;;;5028640;28;20110;-86
2020/12/08 12:46:56;;;;;;;29.20;15.60;;;5.00;80.80;;;;;;5048265;28;20493;-85
2020/12/08 12:49:22;;;;;;;35.08;16.38;;;5.00;80.60;;;;;;5025084;28;20044;-85
2020/12/08 12:51:48;;;;;;;31.38;15.60;;;4.90;80.70;;;;;;5043743;28;20522;-86
2020/12/08 12:54:14;;;;;;;30.60;17.02;;;4.90;80.70;;;;;;5047758;28;20036;-87